createdAt,value
2024-03-25T00:01:42.792Z,6.82
2024-03-25T00:04:13.931Z,6.70
2024-03-25T00:06:44.812Z,6.69
2024-03-25T00:09:15.656Z,6.63
2024-03-25T00:11:46.548Z,6.63
2024-03-25T00:14:17.528Z,6.69
2024-03-25T00:16:48.248Z,6.58
2024-03-25T00:19:19.433Z,6.60
2024-03-25T00:21:50.187Z,6.67
2024-03-25T00:24:20.953Z,6.59
2024-03-25T00:26:51.665Z,6.57
2024-03-25T00:29:22.588Z,6.51
2024-03-25T00:31:53.415Z,6.52
2024-03-25T00:34:24.392Z,6.44
2024-03-25T00:36:55.394Z,6.51
2024-03-25T00:39:27.186Z,6.60
2024-03-25T00:41:58.087Z,6.49
2024-03-25T00:44:28.836Z,6.53
2024-03-25T00:46:59.710Z,6.47
2024-03-25T00:49:31.002Z,6.44
2024-03-25T00:52:01.764Z,6.54
2024-03-25T00:54:33.603Z,6.54
2024-03-25T00:57:04.876Z,6.68
2024-03-25T00:59:36.205Z,6.83
2024-03-25T01:02:07.882Z,6.74
2024-03-25T01:04:38.771Z,6.77
2024-03-25T01:07:09.571Z,6.66
2024-03-25T01:09:40.430Z,6.60
2024-03-25T01:12:11.350Z,6.67
2024-03-25T01:14:42.518Z,6.54
2024-03-25T01:17:13.841Z,6.33
2024-03-25T01:19:45.095Z,6.41
2024-03-25T01:22:15.843Z,6.34
2024-03-25T01:24:47.018Z,6.36
2024-03-25T01:27:17.767Z,6.36
2024-03-25T01:29:48.529Z,6.35
2024-03-25T01:32:19.640Z,6.54
2024-03-25T01:34:50.938Z,6.73
2024-03-25T01:37:21.683Z,6.74
2024-03-25T01:39:52.663Z,6.91
2024-03-25T01:42:23.475Z,6.86
2024-03-25T01:44:54.881Z,6.74
2024-03-25T01:47:25.710Z,6.78
2024-03-25T01:49:57.590Z,6.71
2024-03-25T01:52:30.307Z,7.06
2024-03-25T01:55:04.619Z,7.44
2024-03-25T01:57:35.703Z,7.28
2024-03-25T02:00:09.233Z,6.99
2024-03-25T02:02:44.968Z,6.82
2024-03-25T02:05:16.880Z,6.51
2024-03-25T02:07:48.196Z,6.49
2024-03-25T02:10:19.337Z,6.37
2024-03-25T02:12:51.323Z,6.45
2024-03-25T02:15:23.167Z,6.38
2024-03-25T02:17:53.873Z,6.18
2024-03-25T02:20:24.703Z,6.01
2024-03-25T02:22:55.867Z,5.89
2024-03-25T02:25:27.747Z,5.92
2024-03-25T02:27:58.585Z,5.97
2024-03-25T02:30:29.839Z,5.90
2024-03-25T02:33:00.569Z,5.92
2024-03-25T02:35:32.170Z,5.94
2024-03-25T02:38:04.195Z,5.85
2024-03-25T02:40:35.496Z,5.78
2024-03-25T02:43:08.147Z,5.68
2024-03-25T02:45:39.240Z,5.70
2024-03-25T02:48:10.458Z,5.61
2024-03-25T02:50:41.369Z,5.61
2024-03-25T02:53:12.486Z,5.66
2024-03-25T02:55:43.340Z,5.57
2024-03-25T02:58:14.122Z,5.86
2024-03-25T03:00:44.878Z,5.85
2024-03-25T03:03:15.694Z,5.80
2024-03-25T03:05:46.627Z,5.70
2024-03-25T03:08:17.275Z,5.60
2024-03-25T03:10:48.036Z,5.73
2024-03-25T03:13:18.788Z,5.64
2024-03-25T03:15:49.684Z,5.51
2024-03-25T03:18:20.369Z,5.50
2024-03-25T03:20:51.389Z,5.40
2024-03-25T03:23:22.204Z,5.43
2024-03-25T03:25:53.703Z,5.36
2024-03-25T03:28:24.512Z,5.43
2024-03-25T03:30:55.301Z,5.34
2024-03-25T03:33:26.121Z,5.32
2024-03-25T03:35:57.621Z,5.44
2024-03-25T03:38:28.404Z,5.43
2024-03-25T03:41:04.713Z,5.53
2024-03-25T03:43:35.566Z,5.62
2024-03-25T03:46:07.086Z,5.55
2024-03-25T03:48:39.096Z,5.67
2024-03-25T03:51:10.466Z,5.67
2024-03-25T03:53:41.522Z,5.69
2024-03-25T03:56:12.372Z,5.98
2024-03-25T03:58:43.202Z,5.86
2024-03-25T04:01:20.508Z,5.63
2024-03-25T04:03:51.509Z,5.61
2024-03-25T04:06:22.457Z,5.46
2024-03-25T04:08:53.192Z,5.65
2024-03-25T04:11:23.918Z,5.57
2024-03-25T04:13:54.624Z,5.56
2024-03-25T04:16:25.360Z,5.69
2024-03-25T04:18:57.612Z,5.50
2024-03-25T04:21:28.369Z,5.49
2024-03-25T04:23:59.012Z,5.38
2024-03-25T04:26:29.826Z,5.32
2024-03-25T04:29:00.684Z,5.16
2024-03-25T04:31:31.444Z,4.99
2024-03-25T04:34:02.286Z,4.91
2024-03-25T04:36:33.053Z,4.76
2024-03-25T04:39:04.782Z,4.76
2024-03-25T04:41:35.900Z,4.56
2024-03-25T04:44:06.894Z,4.57
2024-03-25T04:46:37.680Z,4.47
2024-03-25T04:49:08.677Z,4.48
2024-03-25T04:51:39.526Z,4.61
2024-03-25T04:54:10.206Z,4.44
2024-03-25T04:56:41.574Z,4.45
2024-03-25T04:59:12.499Z,4.29
2024-03-25T05:01:43.263Z,4.27
2024-03-25T05:04:13.998Z,4.17
2024-03-25T05:06:44.844Z,4.19
2024-03-25T05:09:17.319Z,4.13
2024-03-25T05:11:48.107Z,3.99
2024-03-25T05:14:18.876Z,3.88
2024-03-25T05:16:50.417Z,3.85
2024-03-25T05:19:21.391Z,3.94
2024-03-25T05:21:52.099Z,3.90
2024-03-25T05:24:23.189Z,3.92
2024-03-25T05:26:53.895Z,3.91
2024-03-25T05:29:25.473Z,4.07
2024-03-25T05:32:03.265Z,4.51
2024-03-25T05:34:33.938Z,4.75
2024-03-25T05:37:04.668Z,4.43
2024-03-25T05:39:35.379Z,4.51
2024-03-25T05:42:07.670Z,4.48
2024-03-25T05:44:38.632Z,4.49
2024-03-25T05:47:09.408Z,4.66
2024-03-25T05:49:40.337Z,4.63
2024-03-25T05:52:11.204Z,4.55
2024-03-25T05:54:42.004Z,4.44
2024-03-25T05:57:12.758Z,4.44
2024-03-25T05:59:43.476Z,4.42
2024-03-25T06:02:14.793Z,4.71
2024-03-25T06:04:45.500Z,4.70
2024-03-25T06:07:16.379Z,4.67
2024-03-25T06:09:47.905Z,4.73
2024-03-25T06:12:18.680Z,4.76
2024-03-25T06:14:50.493Z,4.89
2024-03-25T06:17:21.300Z,4.96
2024-03-25T06:19:53.287Z,5.04
2024-03-25T06:22:24.408Z,5.07
2024-03-25T06:24:55.219Z,5.13
2024-03-25T06:27:25.920Z,5.24
2024-03-25T06:30:16.700Z,5.44
2024-03-25T06:33:02.065Z,5.59
2024-03-25T06:35:32.803Z,5.86
2024-03-25T06:38:03.655Z,6.24
2024-03-25T06:40:34.476Z,6.54
2024-03-25T06:43:05.930Z,7.10
2024-03-25T06:45:36.609Z,7.62
2024-03-25T06:48:09.326Z,8.28
2024-03-25T06:50:40.146Z,8.68
2024-03-25T06:53:11.023Z,8.82
2024-03-25T06:55:42.062Z,8.76
2024-03-25T06:58:12.713Z,8.82
2024-03-25T07:00:43.789Z,8.63
2024-03-25T07:03:14.680Z,8.31
2024-03-25T07:05:47.920Z,8.41
2024-03-25T07:08:20.110Z,8.38
2024-03-25T07:10:50.988Z,9.12
2024-03-25T07:13:22.298Z,10.22
2024-03-25T07:15:54.996Z,10.49
2024-03-25T07:18:26.029Z,11.04
2024-03-25T07:20:56.776Z,12.85
2024-03-25T07:23:28.039Z,14.81
2024-03-25T07:25:58.774Z,16.52
2024-03-25T07:28:30.303Z,18.29
2024-03-25T07:31:02.140Z,20.16
2024-03-25T07:33:33.026Z,21.30
2024-03-25T07:36:05.729Z,22.07
2024-03-25T07:38:36.668Z,21.99
2024-03-25T07:41:08.229Z,22.31
2024-03-25T07:43:39.628Z,22.41
2024-03-25T07:46:10.423Z,23.98
2024-03-25T07:48:41.311Z,24.95
2024-03-25T07:51:12.122Z,25.97
2024-03-25T07:53:43.533Z,26.44
2024-03-25T07:56:14.905Z,28.01
2024-03-25T07:58:45.697Z,28.26
2024-03-25T08:01:16.835Z,26.57
2024-03-25T08:03:47.716Z,22.27
2024-03-25T08:06:18.569Z,20.80
2024-03-25T08:08:49.693Z,19.04
2024-03-25T08:11:20.973Z,18.03
2024-03-25T08:13:51.953Z,17.80
2024-03-25T08:16:22.694Z,18.06
2024-03-25T08:18:53.517Z,19.52
2024-03-25T08:21:24.999Z,17.49
2024-03-25T08:23:56.181Z,16.65
2024-03-25T08:26:27.078Z,15.98
2024-03-25T08:28:57.788Z,15.23
2024-03-25T08:31:28.818Z,14.76
2024-03-25T08:34:00.386Z,14.03
2024-03-25T08:36:31.119Z,13.56
2024-03-25T08:39:01.869Z,13.21
2024-03-25T08:41:33.926Z,12.78
2024-03-25T08:44:05.306Z,12.59
2024-03-25T08:46:36.461Z,12.55
2024-03-25T08:49:07.652Z,12.45
2024-03-25T08:51:38.720Z,12.16
2024-03-25T08:54:09.662Z,12.02
2024-03-25T08:56:40.654Z,11.77
2024-03-25T08:59:11.463Z,11.68
2024-03-25T09:01:42.263Z,11.75
2024-03-25T09:04:26.029Z,11.33
2024-03-25T09:06:59.096Z,11.21
2024-03-25T09:09:43.863Z,11.22
2024-03-25T09:12:14.933Z,11.10
2024-03-25T09:14:45.745Z,11.21
2024-03-25T09:17:17.074Z,11.14
2024-03-25T09:19:47.953Z,11.06
2024-03-25T09:22:18.980Z,10.92
2024-03-25T09:24:50.357Z,10.90
2024-03-25T09:27:21.406Z,11.09
2024-03-25T09:29:52.350Z,10.63
2024-03-25T09:32:24.757Z,10.48
2024-03-25T09:34:57.006Z,10.55
2024-03-25T09:37:28.440Z,10.70
2024-03-25T09:39:59.756Z,11.04
2024-03-25T09:42:35.666Z,11.25
2024-03-25T09:45:11.530Z,12.59
2024-03-25T09:47:44.820Z,12.30
2024-03-25T09:50:20.471Z,11.58
2024-03-25T09:52:51.785Z,11.31
2024-03-25T09:55:22.636Z,11.11
2024-03-25T09:57:54.156Z,10.81
2024-03-25T10:00:25.099Z,10.66
2024-03-25T10:02:55.939Z,10.51
2024-03-25T10:05:27.460Z,10.62
2024-03-25T10:07:58.768Z,10.65
2024-03-25T10:10:29.726Z,10.87
2024-03-25T10:13:00.867Z,11.53
2024-03-25T10:15:32.115Z,11.47
2024-03-25T10:18:03.047Z,11.50
2024-03-25T10:20:35.634Z,11.61
2024-03-25T10:23:07.262Z,11.61
2024-03-25T10:25:38.497Z,11.85
2024-03-25T10:28:12.336Z,11.98
2024-03-25T10:30:44.195Z,12.07
2024-03-25T10:33:15.172Z,11.99
2024-03-25T10:35:52.180Z,11.98
2024-03-25T10:38:24.942Z,13.05
2024-03-25T10:40:59.456Z,12.98
2024-03-25T10:43:33.042Z,13.28
2024-03-25T10:46:05.608Z,13.36
2024-03-25T10:48:39.102Z,13.26
2024-03-25T10:51:11.533Z,15.23
2024-03-25T10:53:44.839Z,14.55
2024-03-25T10:56:17.350Z,14.01
2024-03-25T10:58:49.933Z,13.14
2024-03-25T11:01:23.404Z,13.25
2024-03-25T11:03:54.648Z,13.54
2024-03-25T11:06:25.660Z,13.65
2024-03-25T11:09:05.124Z,13.58
2024-03-25T11:11:36.624Z,13.70
2024-03-25T11:14:17.288Z,13.68
2024-03-25T11:16:54.952Z,13.56
2024-03-25T11:19:30.246Z,13.47
2024-03-25T11:22:12.347Z,13.39
2024-03-25T11:24:47.008Z,13.57
2024-03-25T11:27:23.088Z,13.79
2024-03-25T11:29:53.832Z,13.67
2024-03-25T11:32:24.686Z,13.54
2024-03-25T11:34:55.474Z,13.28
2024-03-25T11:37:27.028Z,13.82
2024-03-25T11:40:06.061Z,15.53
2024-03-25T11:42:37.516Z,15.57
2024-03-25T11:45:16.261Z,15.36
2024-03-25T11:47:48.636Z,15.30
2024-03-25T11:50:21.049Z,14.97
2024-03-25T11:52:51.971Z,14.73
2024-03-25T11:55:22.796Z,14.79
2024-03-25T11:57:59.466Z,15.51
2024-03-25T12:00:30.342Z,15.13
2024-03-25T12:03:02.178Z,14.87
2024-03-25T12:05:33.095Z,15.07
2024-03-25T12:08:04.181Z,15.10
2024-03-25T12:10:49.185Z,15.26
2024-03-25T12:13:21.170Z,15.60
2024-03-25T12:15:52.289Z,15.79
2024-03-25T12:18:23.528Z,15.74
2024-03-25T12:20:54.233Z,15.90
2024-03-25T12:23:25.107Z,15.86
2024-03-25T12:25:56.087Z,15.97
2024-03-25T12:28:27.333Z,16.42
2024-03-25T12:30:58.561Z,16.50
2024-03-25T12:33:29.375Z,16.32
2024-03-25T12:36:00.241Z,16.22
2024-03-25T12:38:33.307Z,16.17
2024-03-25T12:41:08.798Z,15.93
2024-03-25T12:43:44.965Z,15.70
2024-03-25T12:46:16.584Z,15.66
2024-03-25T12:48:48.204Z,15.71
2024-03-25T12:51:19.091Z,15.58
2024-03-25T12:53:49.885Z,15.59
2024-03-25T12:56:20.701Z,15.60
2024-03-25T12:58:51.511Z,15.50
2024-03-25T13:01:22.315Z,15.29
2024-03-25T13:03:53.279Z,15.30
2024-03-25T13:06:24.332Z,15.36
2024-03-25T13:08:55.226Z,15.20
2024-03-25T13:11:26.312Z,15.15
2024-03-25T13:13:57.110Z,15.21
2024-03-25T13:16:28.583Z,15.21
2024-03-25T13:18:59.719Z,15.34
2024-03-25T13:21:30.679Z,15.30
2024-03-25T13:24:01.669Z,15.47
2024-03-25T13:26:32.723Z,15.62
2024-03-25T13:29:04.036Z,15.05
2024-03-25T13:31:34.907Z,14.59
2024-03-25T13:34:05.789Z,14.30
2024-03-25T13:36:36.666Z,14.22
2024-03-25T13:39:10.067Z,14.23
2024-03-25T13:41:41.015Z,14.65
2024-03-25T13:44:11.859Z,14.91
2024-03-25T13:46:42.594Z,15.14
2024-03-25T13:49:16.574Z,15.27
2024-03-25T13:51:47.230Z,15.27
2024-03-25T13:54:17.919Z,15.02
2024-03-25T13:56:49.233Z,14.97
2024-03-25T13:59:21.216Z,14.81
2024-03-25T14:01:52.654Z,14.62
2024-03-25T14:04:23.494Z,14.53
2024-03-25T14:06:54.650Z,14.32
2024-03-25T14:09:29.411Z,14.22
2024-03-25T14:12:00.199Z,14.34
2024-03-25T14:14:31.214Z,14.46
2024-03-25T14:17:02.248Z,14.24
2024-03-25T14:19:33.848Z,14.15
2024-03-25T14:22:04.745Z,14.03
2024-03-25T14:24:35.644Z,13.95
2024-03-25T14:27:06.760Z,13.92
2024-03-25T14:29:37.625Z,13.54
2024-03-25T14:32:08.596Z,13.21
2024-03-25T14:34:39.409Z,13.22
2024-03-25T14:37:28.756Z,13.26
2024-03-25T14:40:05.930Z,13.21
2024-03-25T14:42:38.191Z,13.27
2024-03-25T14:45:10.786Z,13.36
2024-03-25T14:47:41.660Z,13.32
2024-03-25T14:50:13.648Z,13.31
2024-03-25T14:52:44.969Z,13.26
2024-03-25T14:55:15.946Z,13.12
2024-03-25T14:57:46.763Z,12.95
2024-03-25T15:00:19.519Z,12.94
2024-03-25T15:02:50.542Z,13.11
2024-03-25T15:05:22.142Z,13.02
2024-03-25T15:07:53.166Z,12.95
2024-03-25T15:10:24.107Z,12.94
2024-03-25T15:12:55.413Z,13.00
2024-03-25T15:15:26.514Z,13.10
2024-03-25T15:17:57.595Z,12.93
2024-03-25T15:20:28.888Z,12.86
2024-03-25T15:23:00.061Z,12.82
2024-03-25T15:25:31.327Z,12.86
2024-03-25T15:28:03.676Z,12.97
2024-03-25T15:30:41.707Z,12.85
2024-03-25T15:33:12.835Z,12.76
2024-03-25T15:35:44.207Z,12.89
2024-03-25T15:38:15.352Z,12.93
2024-03-25T15:40:52.353Z,12.95
2024-03-25T15:43:23.884Z,12.82
2024-03-25T15:46:00.088Z,12.78
2024-03-25T15:48:31.147Z,12.41
2024-03-25T15:51:03.779Z,12.40
2024-03-25T15:53:34.791Z,12.41
2024-03-25T15:56:08.316Z,12.51
2024-03-25T15:58:39.472Z,12.67
2024-03-25T16:01:10.681Z,12.62
2024-03-25T16:03:41.826Z,12.58
2024-03-25T16:06:13.932Z,12.45
2024-03-25T16:08:45.431Z,12.29
2024-03-25T16:11:21.286Z,12.20
2024-03-25T16:13:52.684Z,12.13
2024-03-25T16:16:23.829Z,12.14
2024-03-25T16:18:55.206Z,12.26
2024-03-25T16:21:27.314Z,12.44
2024-03-25T16:23:58.402Z,12.29
2024-03-25T16:26:29.440Z,12.14
2024-03-25T16:29:00.410Z,12.00
2024-03-25T16:31:32.162Z,11.98
2024-03-25T16:34:03.212Z,11.94
2024-03-25T16:36:35.055Z,11.80
2024-03-25T16:39:06.681Z,11.60
2024-03-25T16:41:39.355Z,11.39
2024-03-25T16:44:10.530Z,11.15
2024-03-25T16:46:41.625Z,10.97
2024-03-25T16:49:13.530Z,11.03
2024-03-25T16:51:45.110Z,10.81
2024-03-25T16:54:16.063Z,10.64
2024-03-25T16:56:47.039Z,10.80
2024-03-25T16:59:17.902Z,10.67
2024-03-25T17:01:48.842Z,10.53
2024-03-25T17:04:20.339Z,10.50
2024-03-25T17:06:51.415Z,10.47
2024-03-25T17:09:22.341Z,10.27
2024-03-25T17:11:53.635Z,10.12
2024-03-25T17:14:25.353Z,10.06
2024-03-25T17:16:57.106Z,10.02
2024-03-25T17:19:28.379Z,9.88
2024-03-25T17:22:02.647Z,9.79
2024-03-25T17:24:33.665Z,9.99
2024-03-25T17:27:05.555Z,10.03
2024-03-25T17:29:37.034Z,10.14
2024-03-25T17:32:08.538Z,9.99
2024-03-25T17:34:39.389Z,10.10
2024-03-25T17:37:10.312Z,10.16
2024-03-25T17:39:41.099Z,10.11
2024-03-25T17:42:13.939Z,9.80
2024-03-25T17:44:48.985Z,9.58
2024-03-25T17:47:20.240Z,9.59
2024-03-25T17:49:51.114Z,9.44
2024-03-25T17:52:22.451Z,9.53
2024-03-25T17:54:53.418Z,9.74
2024-03-25T17:57:24.429Z,9.61
2024-03-25T17:59:55.531Z,9.34
2024-03-25T18:02:26.589Z,9.20
2024-03-25T18:04:57.815Z,9.34
2024-03-25T18:07:29.590Z,9.24
2024-03-25T18:10:00.701Z,9.22
2024-03-25T18:12:31.619Z,9.26
2024-03-25T18:15:02.807Z,9.24
2024-03-25T18:17:34.578Z,8.96
2024-03-25T18:20:08.055Z,8.96
2024-03-25T18:22:39.248Z,9.03
2024-03-25T18:25:11.338Z,8.83
2024-03-25T18:27:42.874Z,8.79
2024-03-25T18:30:15.696Z,8.99
2024-03-25T18:32:47.595Z,8.86
2024-03-25T18:35:18.730Z,8.58
2024-03-25T18:37:49.863Z,8.76
2024-03-25T18:40:22.339Z,8.94
2024-03-25T18:42:53.287Z,8.61
2024-03-25T18:45:24.264Z,8.42
2024-03-25T18:47:55.371Z,8.31
2024-03-25T18:50:26.614Z,8.07
2024-03-25T18:52:57.939Z,8.14
2024-03-25T18:55:29.018Z,8.25
2024-03-25T18:58:00.295Z,8.16
2024-03-25T19:00:31.424Z,7.92
2024-03-25T19:03:02.548Z,8.00
2024-03-25T19:05:33.594Z,7.75
2024-03-25T19:08:05.668Z,7.72
2024-03-25T19:10:36.589Z,7.76
2024-03-25T19:13:08.197Z,7.56
2024-03-25T19:15:40.427Z,7.68
2024-03-25T19:18:11.859Z,7.82
2024-03-25T19:20:42.830Z,7.55
2024-03-25T19:23:13.836Z,7.34
2024-03-25T19:25:44.775Z,7.30
2024-03-25T19:28:16.076Z,7.18
2024-03-25T19:30:47.524Z,7.43
2024-03-25T19:33:18.529Z,7.56
2024-03-25T19:35:52.602Z,7.39
2024-03-25T19:38:23.958Z,7.27
2024-03-25T19:40:55.105Z,7.27
2024-03-25T19:43:26.444Z,7.09
2024-03-25T19:45:57.544Z,7.02
2024-03-25T19:48:29.119Z,7.00
2024-03-25T19:51:00.032Z,6.92
2024-03-25T19:53:31.430Z,7.12
2024-03-25T19:56:05.004Z,6.93
2024-03-25T19:58:35.969Z,7.05
2024-03-25T20:01:11.162Z,7.19
2024-03-25T20:03:42.267Z,6.91
2024-03-25T20:06:15.720Z,6.78
2024-03-25T20:08:47.518Z,6.88
2024-03-25T20:11:18.487Z,6.75
2024-03-25T20:13:49.369Z,6.79
2024-03-25T20:16:21.243Z,6.67
2024-03-25T20:18:52.273Z,6.67
2024-03-25T20:21:23.279Z,6.75
2024-03-25T20:23:54.211Z,6.76
2024-03-25T20:26:25.297Z,6.55
2024-03-25T20:28:56.388Z,6.46
2024-03-25T20:31:27.223Z,6.29
2024-03-25T20:33:58.398Z,6.34
2024-03-25T20:36:29.379Z,6.34
2024-03-25T20:39:00.353Z,6.20
2024-03-25T20:41:31.315Z,6.24
2024-03-25T20:44:03.964Z,6.19
2024-03-25T20:46:35.729Z,6.09
2024-03-25T20:49:08.051Z,6.03
2024-03-25T20:51:39.466Z,5.96
2024-03-25T20:54:10.858Z,6.09
2024-03-25T20:56:41.855Z,6.26
2024-03-25T20:59:13.007Z,6.12
2024-03-25T21:01:44.086Z,5.98
2024-03-25T21:04:15.114Z,5.86
2024-03-25T21:06:46.662Z,5.74
2024-03-25T21:09:17.657Z,5.69
2024-03-25T21:11:48.510Z,5.63
2024-03-25T21:14:19.826Z,5.62
2024-03-25T21:16:50.754Z,5.70
2024-03-25T21:19:23.055Z,5.78
2024-03-25T21:21:53.913Z,5.75
2024-03-25T21:24:25.136Z,5.85
2024-03-25T21:26:56.206Z,5.86
2024-03-25T21:29:27.174Z,5.86
2024-03-25T21:31:58.135Z,6.02
2024-03-25T21:34:29.951Z,5.90
2024-03-25T21:37:01.148Z,5.91
2024-03-25T21:39:32.034Z,5.86
2024-03-25T21:42:03.165Z,5.67
2024-03-25T21:44:34.123Z,5.77
2024-03-25T21:47:06.824Z,5.72
2024-03-25T21:49:37.964Z,5.74
2024-03-25T21:52:09.752Z,5.89
2024-03-25T21:54:41.625Z,5.85
2024-03-25T21:57:12.431Z,5.79
2024-03-25T21:59:43.429Z,5.87
2024-03-25T22:02:14.380Z,5.71
2024-03-25T22:04:49.623Z,5.58
2024-03-25T22:07:20.422Z,5.49
2024-03-25T22:09:51.885Z,5.49
2024-03-25T22:12:22.781Z,5.74
2024-03-25T22:14:54.566Z,5.65
2024-03-25T22:17:25.608Z,5.51
2024-03-25T22:19:57.044Z,5.53
2024-03-25T22:22:28.255Z,5.66
2024-03-25T22:24:59.359Z,5.60
2024-03-25T22:27:30.277Z,5.63
2024-03-25T22:30:01.626Z,5.58
2024-03-25T22:32:33.008Z,5.46
2024-03-25T22:35:03.956Z,5.42
2024-03-25T22:37:40.241Z,5.36
2024-03-25T22:40:14.939Z,5.39
2024-03-25T22:42:46.515Z,5.51
2024-03-25T22:45:17.770Z,5.43
2024-03-25T22:47:48.633Z,5.41
2024-03-25T22:50:19.735Z,5.48
2024-03-25T22:52:50.751Z,5.38
2024-03-25T22:55:22.361Z,5.43
2024-03-25T22:57:53.233Z,5.50
2024-03-25T23:00:24.176Z,5.39
2024-03-25T23:02:55.011Z,5.30
2024-03-25T23:05:25.949Z,5.26
2024-03-25T23:07:56.769Z,5.38
2024-03-25T23:10:27.615Z,5.48
2024-03-25T23:12:58.707Z,5.40
2024-03-25T23:15:29.623Z,5.49
2024-03-25T23:18:00.491Z,5.37
2024-03-25T23:20:31.900Z,5.29
2024-03-25T23:23:03.068Z,5.45
2024-03-25T23:25:33.970Z,5.37
2024-03-25T23:28:05.256Z,5.20
2024-03-25T23:30:36.724Z,5.11
2024-03-25T23:33:08.166Z,5.06
2024-03-25T23:35:39.093Z,5.05
2024-03-25T23:38:10.014Z,5.03
2024-03-25T23:40:40.968Z,5.02
2024-03-25T23:43:13.214Z,5.32
2024-03-25T23:45:44.204Z,5.43
2024-03-25T23:48:15.017Z,5.35
2024-03-25T23:50:46.731Z,5.36
2024-03-25T23:53:18.191Z,5.22
2024-03-25T23:55:49.583Z,5.08
2024-03-25T23:58:20.459Z,5.04
